Time;durP1;ratioP1;P1;durP2;ratioP2;P2;SDS_P1;SDS_P2;PMS_P1;PMS_P2;Temp;Humidity;BMP_temperature;BMP_pressure;BME280_temperature;BME280_humidity;BME280_pressure;Samples;Min_cycle;Max_cycle;Signal;HPM_P1;HPM_P2
2022/03/31 00:01:42;;;;;;;;;;;;;;;13.70;47.29;99374.19;4920168;28;121812;-63
2022/03/31 00:04:08;;;;;;;;;;;;;;;13.68;47.27;99371.03;4919951;28;128467;-64
2022/03/31 00:06:34;;;;;;;;;;;;;;;13.67;47.06;99369.41;4920493;28;98469;-64
2022/03/31 00:09:00;;;;;;;;;;;;;;;13.66;47.11;99365.91;4920408;28;125434;-63
2022/03/31 00:11:26;;;;;;;;;;;;;;;13.65;47.22;99361.59;4920308;28;98036;-62
2022/03/31 00:13:52;;;;;;;;;;;;;;;13.65;47.29;99360.81;4920354;28;129048;-64
2022/03/31 00:16:18;;;;;;;;;;;;;;;13.63;47.30;99352.19;4919807;28;128384;-62
2022/03/31 00:18:44;;;;;;;;;;;;;;;13.62;47.30;99362.22;4919702;28;126948;-63
2022/03/31 00:21:10;;;;;;;;;;;;;;;13.62;47.25;99356.03;4920471;28;98534;-64
2022/03/31 00:23:37;;;;;;;;;;;;;;;13.61;47.13;99365.25;4920740;28;98659;-63
2022/03/31 00:26:03;;;;;;;;;;;;;;;13.61;47.15;99360.63;4938288;28;98696;-63
2022/03/31 00:28:29;;;;;;;;;;;;;;;13.60;47.33;99364.47;4905518;28;97890;-64
2022/03/31 00:30:55;;;;;;;;;;;;;;;13.60;47.24;99364.47;4921080;28;97862;-63
2022/03/31 00:33:21;;;;;;;;;;;;;;;13.59;47.29;99367.47;4901676;28;127955;-64
2022/03/31 00:35:47;;;;;;;;;;;;;;;13.58;47.04;99366.66;4919328;28;128286;-63
2022/03/31 00:38:13;;;;;;;;;;;;;;;13.57;47.17;99367.78;4919993;28;123311;-64
2022/03/31 00:40:39;;;;;;;;;;;;;;;13.57;46.88;99370.50;4920081;28;98075;-62
2022/03/31 00:43:05;;;;;;;;;;;;;;;13.57;47.20;99375.13;4920764;28;122585;-64
2022/03/31 00:45:34;;;;;;;;;;;;;;;13.56;47.31;99368.09;4921617;28;99137;-64
2022/03/31 00:48:00;;;;;;;;;;;;;;;13.55;47.32;99377.31;4902823;28;99150;-62
2022/03/31 00:50:26;;;;;;;;;;;;;;;13.54;47.33;99373.81;4920463;28;117156;-64
2022/03/31 00:52:52;;;;;;;;;;;;;;;13.54;46.97;99373.03;4920347;28;98681;-64
2022/03/31 00:55:21;;;;;;;;;;;;;;;13.52;47.28;99370.66;4920643;28;98957;-63
2022/03/31 00:57:47;;;;;;;;;;;;;;;13.52;47.30;99376.06;4921457;28;98424;-63
2022/03/31 01:00:17;;;;;;;;;;;;;;;13.53;47.27;99374.16;4920203;28;97793;-64
2022/03/31 01:02:44;;;;;;;;;;;;;;;13.51;47.06;99385.28;4921041;28;98276;-64
2022/03/31 01:05:10;;;;;;;;;;;;;;;13.50;47.04;99376.34;4919755;28;98970;-63
2022/03/31 01:07:37;;;;;;;;;;;;;;;13.50;47.13;99375.56;4920128;28;106091;-64
2022/03/31 01:10:03;;;;;;;;;;;;;;;13.49;47.40;99369.34;4920441;28;98172;-62
2022/03/31 01:12:29;;;;;;;;;;;;;;;13.49;47.25;99363.16;4916320;28;120468;-63
2022/03/31 01:15:14;;;;;;;;;;;;;;;13.48;47.13;99370.47;4919269;28;123988;-63
2022/03/31 01:17:41;;;;;;;;;;;;;;;13.48;47.10;99370.47;4902457;28;100550;-64
2022/03/31 01:20:09;;;;;;;;;;;;;;;13.47;47.29;99368.06;4902098;28;97721;-63
2022/03/31 01:22:35;;;;;;;;;;;;;;;13.46;47.13;99369.97;4917875;28;102573;-64
2022/03/31 01:25:03;;;;;;;;;;;;;;;13.46;47.23;99367.25;4923301;28;127796;-63
2022/03/31 01:27:29;;;;;;;;;;;;;;;13.45;47.10;99362.97;4919410;28;98417;-63
2022/03/31 01:29:55;;;;;;;;;;;;;;;13.45;47.19;99368.38;4918580;28;123517;-63
2022/03/31 01:32:21;;;;;;;;;;;;;;;13.44;47.21;99355.16;4900193;28;127651;-64
2022/03/31 01:34:47;;;;;;;;;;;;;;;13.44;47.19;99350.56;4917620;28;128377;-64
2022/03/31 01:37:13;;;;;;;;;;;;;;;13.43;46.99;99356.25;4901865;28;98254;-63
2022/03/31 01:39:40;;;;;;;;;;;;;;;13.42;46.99;99352.75;4919998;28;97840;-63
2022/03/31 01:42:06;;;;;;;;;;;;;;;13.42;47.06;99354.69;4920590;28;98785;-63
2022/03/31 01:44:32;;;;;;;;;;;;;;;13.41;47.03;99353.09;4919710;28;114648;-63
2022/03/31 01:46:58;;;;;;;;;;;;;;;13.41;47.23;99345.75;4918186;28;100973;-63
2022/03/31 01:49:24;;;;;;;;;;;;;;;13.40;47.20;99352.28;4918693;28;121884;-62
2022/03/31 01:51:50;;;;;;;;;;;;;;;13.39;47.14;99350.66;4918885;28;127690;-63
2022/03/31 01:54:17;;;;;;;;;;;;;;;13.38;46.96;99349.09;4919392;28;125999;-63
2022/03/31 01:56:43;;;;;;;;;;;;;;;13.39;47.22;99352.59;4919643;28;98626;-62
2022/03/31 01:59:09;;;;;;;;;;;;;;;13.39;47.25;99355.28;4920297;28;97658;-64
2022/03/31 02:01:35;;;;;;;;;;;;;;;13.37;47.04;99354.81;4900091;28;123044;-63
2022/03/31 02:04:01;;;;;;;;;;;;;;;13.36;47.17;99356.72;4902087;28;126973;-63
2022/03/31 02:06:27;;;;;;;;;;;;;;;13.36;47.18;99355.91;4901336;28;112427;-63
2022/03/31 02:08:56;;;;;;;;;;;;;;;13.34;47.14;99352.72;4915676;28;122356;-63
2022/03/31 02:11:22;;;;;;;;;;;;;;;13.34;47.11;99353.53;4914938;28;98378;-64
2022/03/31 02:13:48;;;;;;;;;;;;;;;13.34;46.98;99344.63;4919449;28;127300;-63
2022/03/31 02:16:14;;;;;;;;;;;;;;;13.33;47.20;99343.81;4917525;28;127609;-63
2022/03/31 02:18:40;;;;;;;;;;;;;;;13.32;47.02;99342.19;4901478;28;119436;-62
2022/03/31 02:21:06;;;;;;;;;;;;;;;13.32;47.15;99344.91;4900858;28;99879;-64
2022/03/31 02:23:32;;;;;;;;;;;;;;;13.31;47.13;99334.41;4900570;28;128514;-63
2022/03/31 02:25:58;;;;;;;;;;;;;;;13.30;46.91;99332.81;4917524;28;128508;-64
2022/03/31 02:28:24;;;;;;;;;;;;;;;13.30;47.42;99333.63;4919244;28;122522;-63
2022/03/31 02:30:50;;;;;;;;;;;;;;;13.30;47.15;99341.72;4918001;28;127899;-64
2022/03/31 02:33:16;;;;;;;;;;;;;;;13.30;47.15;99336.31;4918498;28;127520;-64
2022/03/31 02:35:41;;;;;;;;;;;;;;;13.29;47.13;99334.72;4918081;28;121098;-64
2022/03/31 02:38:07;;;;;;;;;;;;;;;13.29;47.13;99336.63;4919243;28;122443;-62
2022/03/31 02:40:33;;;;;;;;;;;;;;;13.28;47.09;99335.81;4917661;28;126884;-63
2022/03/31 02:42:59;;;;;;;;;;;;;;;13.27;46.91;99328.81;4919279;28;114701;-64
2022/03/31 02:45:25;;;;;;;;;;;;;;;13.26;46.92;99338.06;4920069;28;126920;-63
2022/03/31 02:47:51;;;;;;;;;;;;;;;13.25;47.01;99337.25;4923142;28;97860;-63
2022/03/31 02:50:17;;;;;;;;;;;;;;;13.24;47.12;99338.38;4921810;28;114738;-64
2022/03/31 02:55:29;;;;;;;;;;;;;;;13.22;47.03;99332.44;4921364;28;97892;-64
2022/03/31 02:58:02;;;;;;;;;;;;;;;13.21;47.02;99328.13;4922917;28;98086;-64
2022/03/31 03:00:32;;;;;;;;;;;;;;;13.21;47.12;99330.84;4921964;28;98526;-63
2022/03/31 03:03:00;;;;;;;;;;;;;;;13.21;47.04;99330.06;4921539;28;127362;-64
2022/03/31 03:05:25;;;;;;;;;;;;;;;13.19;47.05;99334.97;4921436;28;99380;-64
2022/03/31 03:07:51;;;;;;;;;;;;;;;13.17;46.98;99321.75;4920148;28;124925;-63
2022/03/31 03:10:17;;;;;;;;;;;;;;;13.18;47.13;99325.25;4920793;28;128437;-64
2022/03/31 03:12:44;;;;;;;;;;;;;;;13.17;47.16;99319.06;4921917;28;128063;-63
2022/03/31 03:15:10;;;;;;;;;;;;;;;13.16;47.01;99308.53;4921593;28;99335;-64
2022/03/31 03:17:40;;;;;;;;;;;;;;;13.15;47.04;99315.84;4923120;28;98084;-62
2022/03/31 03:20:07;;;;;;;;;;;;;;;13.15;46.99;99315.06;4904070;28;100533;-64
2022/03/31 03:22:32;;;;;;;;;;;;;;;13.15;47.09;99320.47;4921120;28;124767;-63
2022/03/31 03:24:59;;;;;;;;;;;;;;;13.14;46.95;99316.97;4926008;28;98020;-63
2022/03/31 03:27:25;;;;;;;;;;;;;;;13.13;47.14;99328.91;4921307;28;97725;-64
2022/03/31 03:29:51;;;;;;;;;;;;;;;13.13;46.88;99328.09;4922199;28;99074;-63
2022/03/31 03:32:17;;;;;;;;;;;;;;;13.12;46.90;99329.19;4921130;28;102762;-63
2022/03/31 03:34:43;;;;;;;;;;;;;;;13.10;46.93;99324.09;4903064;28;126516;-64
2022/03/31 03:37:09;;;;;;;;;;;;;;;13.09;46.85;99325.22;4919447;28;123262;-63
2022/03/31 03:39:35;;;;;;;;;;;;;;;13.09;46.92;99327.94;4922283;28;98067;-63
2022/03/31 03:42:01;;;;;;;;;;;;;;;13.08;46.97;99312.78;4921536;28;98803;-64
2022/03/31 03:44:27;;;;;;;;;;;;;;;13.08;46.92;99318.19;4922471;28;98090;-64
2022/03/31 03:46:53;;;;;;;;;;;;;;;13.06;46.95;99317.72;4922088;28;98927;-63
2022/03/31 03:49:19;;;;;;;;;;;;;;;13.07;47.02;99316.59;4921433;28;99293;-63
2022/03/31 03:51:45;;;;;;;;;;;;;;;13.05;47.02;99309.91;4902694;28;100609;-63
2022/03/31 03:54:11;;;;;;;;;;;;;;;13.06;47.34;99314.22;4902747;28;127601;-64
2022/03/31 03:56:38;;;;;;;;;;;;;;;13.05;47.04;99313.44;4921320;28;98183;-63
2022/03/31 03:59:04;;;;;;;;;;;;;;;13.05;46.96;99308.03;4921335;28;99384;-63
2022/03/31 04:01:30;;;;;;;;;;;;;;;13.04;47.16;99314.50;4920979;28;98616;-63
2022/03/31 04:03:57;;;;;;;;;;;;;;;13.03;46.87;99304.81;4920879;28;128586;-64
2022/03/31 04:06:23;;;;;;;;;;;;;;;13.01;47.05;99301.63;4921472;28;97864;-64
2022/03/31 04:08:49;;;;;;;;;;;;;;;13.01;46.83;99305.13;4921549;28;98747;-63
2022/03/31 04:11:15;;;;;;;;;;;;;;;12.99;47.17;99301.13;4919619;28;128141;-65
2022/03/31 04:13:42;;;;;;;;;;;;;;;12.99;47.12;99299.22;4920771;28;128370;-64
2022/03/31 04:16:08;;;;;;;;;;;;;;;12.98;46.89;99299.53;4921188;28;97909;-63
2022/03/31 04:18:34;;;;;;;;;;;;;;;12.97;46.92;99296.03;4918870;28;101363;-64
2022/03/31 04:21:02;;;;;;;;;;;;;;;12.95;47.11;99300.94;4919069;28;127309;-64
2022/03/31 04:23:29;;;;;;;;;;;;;;;12.94;46.94;99293.97;4921559;28;98510;-64
2022/03/31 04:25:55;;;;;;;;;;;;;;;12.94;46.79;99296.66;4923240;28;99488;-64
2022/03/31 04:28:21;;;;;;;;;;;;;;;12.92;47.04;99298.88;4920946;28;99086;-63
2022/03/31 04:30:46;;;;;;;;;;;;;;;12.91;47.02;99301.91;4921309;28;98337;-63
2022/03/31 04:33:12;;;;;;;;;;;;;;;12.90;46.91;99301.09;4920333;28;127886;-64
2022/03/31 04:35:38;;;;;;;;;;;;;;;12.89;46.93;99296.81;4921200;28;98106;-63
2022/03/31 04:38:05;;;;;;;;;;;;;;;12.89;46.90;99307.63;4920555;28;99806;-63
2022/03/31 04:40:32;;;;;;;;;;;;;;;12.87;46.89;99307.13;4920525;28;99132;-63
2022/03/31 04:42:58;;;;;;;;;;;;;;;12.87;46.89;99307.13;4920068;28;98540;-64
2022/03/31 04:45:24;;;;;;;;;;;;;;;12.87;47.04;99303.63;4919294;28;116137;-64
2022/03/31 04:47:50;;;;;;;;;;;;;;;12.86;46.89;99302.81;4919631;28;127546;-63
2022/03/31 04:50:16;;;;;;;;;;;;;;;12.85;47.02;99290.41;4919978;28;99172;-63
2022/03/31 04:52:42;;;;;;;;;;;;;;;12.84;46.91;99294.22;4916725;28;113740;-63
2022/03/31 04:55:08;;;;;;;;;;;;;;;12.84;46.83;99298.81;4915681;28;104821;-62
2022/03/31 04:57:34;;;;;;;;;;;;;;;12.84;46.92;99288.81;4911050;28;99028;-63
2022/03/31 05:00:00;;;;;;;;;;;;;;;12.84;47.03;99288.81;4917226;28;99468;-63
2022/03/31 05:02:26;;;;;;;;;;;;;;;12.84;46.84;99293.41;4915320;28;125102;-64
2022/03/31 05:04:52;;;;;;;;;;;;;;;12.83;46.58;99287.22;4917319;28;98131;-63
2022/03/31 05:07:18;;;;;;;;;;;;;;;12.83;46.62;99283.72;4914376;28;127964;-63
2022/03/31 05:09:45;;;;;;;;;;;;;;;12.84;46.77;99285.31;4916198;28;99454;-63
2022/03/31 05:12:12;;;;;;;;;;;;;;;12.83;46.66;99292.63;4917188;28;97986;-64
2022/03/31 05:14:39;;;;;;;;;;;;;;;12.83;46.79;99292.63;4915942;28;98789;-64
2022/03/31 05:17:05;;;;;;;;;;;;;;;12.85;46.88;99295.84;4916274;28;112205;-63
2022/03/31 05:19:31;;;;;;;;;;;;;;;12.85;46.95;99313.94;4909091;28;97809;-65
2022/03/31 05:21:57;;;;;;;;;;;;;;;12.84;46.61;99298.81;4916454;28;98350;-64
2022/03/31 05:24:23;;;;;;;;;;;;;;;12.84;46.72;99309.63;4917410;28;120641;-63
2022/03/31 05:26:52;;;;;;;;;;;;;;;12.83;46.61;99303.44;4916161;28;102901;-65
2022/03/31 05:29:18;;;;;;;;;;;;;;;12.83;46.75;99297.25;4915993;28;98760;-63
2022/03/31 05:31:45;;;;;;;;;;;;;;;12.83;46.87;99308.06;4916078;28;98035;-64
2022/03/31 05:34:10;;;;;;;;;;;;;;;12.83;46.64;99305.34;4917264;28;123167;-64
2022/03/31 05:36:36;;;;;;;;;;;;;;;12.85;46.50;99309.34;4915524;28;126443;-63
2022/03/31 05:39:03;;;;;;;;;;;;;;;12.85;46.44;99301.25;4915878;28;128938;-63
2022/03/31 05:41:29;;;;;;;;;;;;;;;12.89;46.43;99294.09;4915830;28;97951;-64
2022/03/31 05:43:55;;;;;;;;;;;;;;;12.93;46.48;99299.66;4915905;28;121405;-64
2022/03/31 05:46:22;;;;;;;;;;;;;;;12.95;46.34;99298.25;4915420;28;128286;-64
2022/03/31 05:48:48;;;;;;;;;;;;;;;12.99;46.43;99299.22;4916287;28;99628;-62
2022/03/31 05:51:14;;;;;;;;;;;;;;;13.03;46.42;99305.59;4908867;28;124518;-62
2022/03/31 05:53:40;;;;;;;;;;;;;;;13.06;46.17;99309.59;4916604;28;97921;-62
2022/03/31 05:56:07;;;;;;;;;;;;;;;13.09;46.45;99313.59;4907479;28;112011;-64
2022/03/31 05:58:33;;;;;;;;;;;;;;;13.11;46.14;99317.56;4916248;28;98674;-62
2022/03/31 06:00:59;;;;;;;;;;;;;;;13.13;46.24;99309.16;4904003;28;114876;-64
2022/03/31 06:03:25;;;;;;;;;;;;;;;13.13;46.26;99317.28;4916014;28;103700;-64
2022/03/31 06:05:51;;;;;;;;;;;;;;;13.14;46.34;99306.13;4915222;28;125560;-63
2022/03/31 06:08:17;;;;;;;;;;;;;;;13.17;46.23;99312.84;4916151;28;99176;-62
2022/03/31 06:10:44;;;;;;;;;;;;;;;13.19;46.30;99319.53;4914053;28;110626;-62
2022/03/31 06:13:10;;;;;;;;;;;;;;;13.21;46.11;99321.94;4916220;28;97792;-64
2022/03/31 06:15:36;;;;;;;;;;;;;;;13.23;46.25;99323.22;4915967;28;99716;-62
2022/03/31 06:18:02;;;;;;;;;;;;;;;13.26;46.26;99321.81;4913821;28;123608;-64
2022/03/31 06:20:28;;;;;;;;;;;;;;;13.27;46.34;99318.00;4913103;28;128101;-64
2022/03/31 06:22:54;;;;;;;;;;;;;;;13.29;46.14;99337.44;4918026;28;98618;-65
2022/03/31 06:25:20;;;;;;;;;;;;;;;13.31;46.19;99329.78;4919091;28;112094;-64
2022/03/31 06:27:47;;;;;;;;;;;;;;;13.33;46.20;99333.00;4918174;28;127394;-63
2022/03/31 06:30:13;;;;;;;;;;;;;;;13.36;46.27;99331.56;4884620;28;97967;-63
2022/03/31 06:32:39;;;;;;;;;;;;;;;13.40;46.40;99332.53;4920075;28;97782;-65
2022/03/31 06:35:05;;;;;;;;;;;;;;;13.42;46.21;99328.41;4918075;28;125889;-65
2022/03/31 06:37:31;;;;;;;;;;;;;;;13.45;46.22;99332.41;4920042;28;99197;-65
2022/03/31 06:39:57;;;;;;;;;;;;;;;13.46;46.10;99331.28;4919554;28;127537;-65
2022/03/31 06:42:23;;;;;;;;;;;;;;;13.46;46.17;99323.16;4920395;28;97678;-63
2022/03/31 06:44:49;;;;;;;;;;;;;;;13.48;46.26;99323.66;4918341;28;99358;-65
2022/03/31 06:47:15;;;;;;;;;;;;;;;13.46;46.24;99329.38;4919234;28;98086;-65
2022/03/31 06:49:41;;;;;;;;;;;;;;;13.49;46.30;99325.25;4918359;28;128308;-63
2022/03/31 06:52:07;;;;;;;;;;;;;;;13.49;46.38;99336.06;4918380;28;122542;-64
2022/03/31 06:54:33;;;;;;;;;;;;;;;13.52;46.29;99332.75;4917633;28;127890;-63
2022/03/31 06:56:59;;;;;;;;;;;;;;;13.54;46.35;99329.72;4918452;28;98263;-63
2022/03/31 06:59:25;;;;;;;;;;;;;;;13.56;46.48;99330.19;4900342;28;128307;-63
2022/03/31 07:01:51;;;;;;;;;;;;;;;13.57;46.49;99329.88;4919884;28;97732;-65
2022/03/31 07:04:17;;;;;;;;;;;;;;;13.58;46.51;99325.25;4918773;28;128301;-64
2022/03/31 07:06:43;;;;;;;;;;;;;;;13.57;46.50;99329.88;4917722;28;98922;-63
2022/03/31 07:09:09;;;;;;;;;;;;;;;13.59;46.49;99324.16;4919059;28;98154;-65
2022/03/31 07:11:35;;;;;;;;;;;;;;;13.62;46.47;99321.63;4918794;28;123494;-63
2022/03/31 07:14:01;;;;;;;;;;;;;;;13.69;46.34;99334.69;4918002;28;127994;-64
2022/03/31 07:16:28;;;;;;;;;;;;;;;13.71;46.33;99335.97;4919201;28;98672;-64
2022/03/31 07:18:54;;;;;;;;;;;;;;;13.74;46.15;99338.03;4919154;28;97833;-65
2022/03/31 07:21:21;;;;;;;;;;;;;;;13.75;45.99;99334.25;4919558;28;97791;-63
2022/03/31 07:23:48;;;;;;;;;;;;;;;13.79;46.26;99336.31;4919120;28;98744;-63
2022/03/31 07:26:15;;;;;;;;;;;;;;;13.81;46.47;99329.47;4918175;28;97956;-64
2022/03/31 07:28:41;;;;;;;;;;;;;;;13.84;46.21;99320.72;4919578;28;98298;-63
2022/03/31 07:31:07;;;;;;;;;;;;;;;13.87;46.31;99330.91;4920016;28;98055;-63
2022/03/31 07:33:33;;;;;;;;;;;;;;;13.90;46.03;99326.75;4920787;28;128797;-65
2022/03/31 07:35:59;;;;;;;;;;;;;;;13.92;46.13;99333.47;4920196;28;98267;-64
2022/03/31 07:38:24;;;;;;;;;;;;;;;13.90;46.10;99330.28;4921932;28;127581;-63
2022/03/31 07:40:51;;;;;;;;;;;;;;;13.93;46.18;99331.56;4922409;28;122399;-63
2022/03/31 07:43:17;;;;;;;;;;;;;;;13.94;46.31;99336.66;4922235;28;98273;-63
2022/03/31 07:45:43;;;;;;;;;;;;;;;13.95;46.32;99330.13;4922320;28;98358;-63
2022/03/31 07:48:13;;;;;;;;;;;;;;;13.98;46.13;99326.78;4921408;28;97994;-65
2022/03/31 07:50:39;;;;;;;;;;;;;;;14.05;46.29;99329.03;4921340;28;98097;-63
2022/03/31 07:53:05;;;;;;;;;;;;;;;14.09;45.79;99329.97;4921920;28;128108;-65
2022/03/31 07:55:31;;;;;;;;;;;;;;;14.15;46.12;99322.50;4921284;28;123624;-65
2022/03/31 07:57:57;;;;;;;;;;;;;;;14.18;46.06;99321.84;4920443;28;127442;-63
2022/03/31 08:00:23;;;;;;;;;;;;;;;14.26;45.77;99318.34;4919943;28;122738;-65
2022/03/31 08:02:50;;;;;;;;;;;;;;;14.31;45.78;99320.91;4922341;28;98483;-65
2022/03/31 08:05:21;;;;;;;;;;;;;;;14.35;46.10;99321.88;4919242;28;98761;-64
2022/03/31 08:07:48;;;;;;;;;;;;;;;14.40;45.72;99323.59;4921261;28;115161;-64
2022/03/31 08:10:14;;;;;;;;;;;;;;;14.44;45.77;99321.84;4921391;28;98263;-64
2022/03/31 08:12:40;;;;;;;;;;;;;;;14.49;45.66;99325.22;4921812;28;98479;-65
2022/03/31 08:15:07;;;;;;;;;;;;;;;14.56;45.63;99313.09;4921239;28;99238;-65
2022/03/31 08:17:33;;;;;;;;;;;;;;;14.64;45.67;99315.00;4921122;28;99083;-63
2022/03/31 08:20:00;;;;;;;;;;;;;;;14.69;45.74;99314.81;4921409;28;98135;-63
2022/03/31 08:22:26;;;;;;;;;;;;;;;14.78;45.68;99314.81;4921097;28;98756;-63
2022/03/31 08:24:53;;;;;;;;;;;;;;;14.86;45.74;99305.88;4927959;28;98520;-65
2022/03/31 08:27:19;;;;;;;;;;;;;;;14.88;45.74;99309.03;4941585;28;98044;-64
2022/03/31 08:29:45;;;;;;;;;;;;;;;14.92;45.81;99304.56;4940080;28;122817;-65
2022/03/31 08:32:12;;;;;;;;;;;;;;;14.98;45.79;99308.69;4940321;28;99212;-66
2022/03/31 08:34:38;;;;;;;;;;;;;;;15.00;45.68;99311.06;4941300;28;98154;-65
2022/03/31 08:37:04;;;;;;;;;;;;;;;14.98;45.63;99314.91;4938147;28;128554;-64
2022/03/31 08:39:30;;;;;;;;;;;;;;;14.97;45.87;99315.22;4920793;28;121586;-65
2022/03/31 08:41:56;;;;;;;;;;;;;;;14.97;45.69;99320.66;4918688;28;128630;-64
2022/03/31 08:44:22;;;;;;;;;;;;;;;14.97;45.83;99317.94;4921002;28;99517;-65
2022/03/31 08:46:49;;;;;;;;;;;;;;;14.93;46.13;99320.53;4920410;28;98091;-64
2022/03/31 08:49:15;;;;;;;;;;;;;;;14.96;45.93;99309.00;4903400;28;98012;-63
2022/03/31 08:51:45;;;;;;;;;;;;;;;14.95;45.99;99317.47;4918720;28;98041;-65
2022/03/31 08:54:11;;;;;;;;;;;;;;;14.90;45.83;99331.22;4919986;28;127018;-64
2022/03/31 08:56:37;;;;;;;;;;;;;;;14.90;46.02;99325.81;4921018;28;98299;-63
2022/03/31 08:59:03;;;;;;;;;;;;;;;14.90;45.94;99331.22;4925589;28;97765;-63
2022/03/31 09:01:30;;;;;;;;;;;;;;;14.89;46.20;99326.91;4919972;28;128440;-64
2022/03/31 09:03:56;;;;;;;;;;;;;;;14.85;45.87;99326.75;4902535;28;97908;-64
2022/03/31 09:06:28;;;;;;;;;;;;;;;14.82;46.11;99324.69;4919578;28;121581;-64
2022/03/31 09:09:02;;;;;;;;;;;;;;;14.84;46.01;99335.22;4921177;28;97937;-65
2022/03/31 09:11:29;;;;;;;;;;;;;;;14.85;45.97;99332.19;4919700;28;98949;-63
2022/03/31 09:13:59;;;;;;;;;;;;;;;14.87;46.15;99340.00;4920198;28;99036;-63
2022/03/31 09:16:36;;;;;;;;;;;;;;;14.86;46.16;99339.22;4920465;28;98430;-65
2022/03/31 09:19:11;;;;;;;;;;;;;;;14.86;46.12;99328.38;4920103;28;97972;-64
2022/03/31 09:21:52;;;;;;;;;;;;;;;14.86;45.74;99336.50;4920289;28;98231;-65
2022/03/31 09:24:19;;;;;;;;;;;;;;;14.82;45.72;99340.97;4920349;28;101417;-65
2022/03/31 09:26:46;;;;;;;;;;;;;;;14.79;46.04;99349.75;4920593;28;97975;-65
2022/03/31 09:29:13;;;;;;;;;;;;;;;14.78;45.79;99341.94;4920886;28;98084;-65
2022/03/31 09:31:40;;;;;;;;;;;;;;;14.76;45.78;99344.16;4918292;28;98217;-64
2022/03/31 09:34:08;;;;;;;;;;;;;;;14.75;46.16;99339.88;4919820;28;119984;-63
2022/03/31 09:36:34;;;;;;;;;;;;;;;14.75;45.82;99348.81;4918081;28;98295;-64
2022/03/31 09:39:07;;;;;;;;;;;;;;;14.73;46.24;99342.88;4920775;28;97859;-64
2022/03/31 09:41:37;;;;;;;;;;;;;;;14.73;45.99;99346.41;4919736;28;98897;-63
2022/03/31 09:44:08;;;;;;;;;;;;;;;14.73;46.06;99343.69;4919862;28;99210;-63
2022/03/31 09:46:38;;;;;;;;;;;;;;;14.77;45.92;99345.75;4919098;28;119397;-63
2022/03/31 09:49:13;;;;;;;;;;;;;;;14.83;45.78;99344.50;4918643;28;98182;-65
2022/03/31 09:51:39;;;;;;;;;;;;;;;14.91;45.57;99332.81;4919023;28;98647;-63
2022/03/31 09:54:05;;;;;;;;;;;;;;;15.03;45.75;99334.84;4919263;28;124001;-65
2022/03/31 09:56:33;;;;;;;;;;;;;;;15.10;45.63;99333.25;4918869;28;126704;-65
2022/03/31 09:59:00;;;;;;;;;;;;;;;15.12;45.69;99338.34;4919810;28;98059;-65
2022/03/31 10:01:26;;;;;;;;;;;;;;;15.15;45.85;99345.84;4900978;28;125862;-66
2022/03/31 10:03:54;;;;;;;;;;;;;;;15.17;45.54;99340.88;4900869;28;128999;-65
2022/03/31 10:06:20;;;;;;;;;;;;;;;15.23;45.49;99334.94;4919973;28;98271;-65
2022/03/31 10:08:47;;;;;;;;;;;;;;;15.32;45.45;99336.81;4920764;28;101079;-65
2022/03/31 10:11:12;;;;;;;;;;;;;;;15.37;45.30;99328.53;4901322;28;98070;-65
2022/03/31 10:13:46;;;;;;;;;;;;;;;15.40;45.09;99331.34;4917487;28;127638;-63
2022/03/31 10:16:14;;;;;;;;;;;;;;;15.42;45.18;99322.91;4898601;28;119708;-65
2022/03/31 10:18:40;;;;;;;;;;;;;;;15.43;45.28;99317.13;4902550;28;98214;-64
2022/03/31 10:21:06;;;;;;;;;;;;;;;15.41;45.60;99313.97;4919042;28;128167;-64
2022/03/31 10:26:25;;;;;;;;;;;;;;;15.36;45.28;99319.53;4938997;28;98085;-65
2022/03/31 10:28:59;;;;;;;;;;;;;;;15.33;45.59;99317.50;4939518;28;97921;-64
2022/03/31 10:31:40;;;;;;;;;;;;;;;15.32;45.68;99312.38;4938404;28;98901;-64
2022/03/31 10:34:09;;;;;;;;;;;;;;;15.29;45.76;99316.56;4938729;28;98510;-64
2022/03/31 10:36:47;;;;;;;;;;;;;;;15.26;45.80;99308.28;4937754;28;124919;-64
2022/03/31 10:39:21;;;;;;;;;;;;;;;15.24;45.68;99308.59;4935751;28;97840;-64
2022/03/31 10:41:47;;;;;;;;;;;;;;;15.23;45.29;99305.06;4919347;28;98881;-62
2022/03/31 10:44:13;;;;;;;;;;;;;;;15.26;45.60;99300.94;4919219;28;98977;-64
2022/03/31 10:46:40;;;;;;;;;;;;;;;15.25;45.44;99293.09;4919491;28;98620;-63
2022/03/31 10:49:12;;;;;;;;;;;;;;;15.29;45.35;99303.00;4919417;28;97780;-62
2022/03/31 10:51:39;;;;;;;;;;;;;;;15.31;45.20;99297.22;4919011;28;98161;-63
2022/03/31 10:54:06;;;;;;;;;;;;;;;15.30;45.25;99291.00;4900944;28;109545;-64
2022/03/31 10:56:32;;;;;;;;;;;;;;;15.29;45.34;99302.19;4916699;28;98175;-64
2022/03/31 10:59:00;;;;;;;;;;;;;;;15.27;45.23;99294.38;4918251;28;122815;-64
2022/03/31 11:01:27;;;;;;;;;;;;;;;15.31;45.47;99303.44;4919170;28;98705;-64
2022/03/31 11:03:59;;;;;;;;;;;;;;;15.33;45.15;99298.50;4918794;28;113885;-64
2022/03/31 11:06:25;;;;;;;;;;;;;;;15.37;45.28;99294.00;4921529;28;98363;-63
2022/03/31 11:08:51;;;;;;;;;;;;;;;15.40;45.32;99295.25;4921057;28;123230;-64
2022/03/31 11:11:19;;;;;;;;;;;;;;;15.38;44.92;99290.16;4920330;28;128655;-63
2022/03/31 11:13:45;;;;;;;;;;;;;;;15.41;45.28;99296.88;4922150;28;99014;-62
2022/03/31 11:16:11;;;;;;;;;;;;;;;15.41;45.26;99288.72;4921715;28;98302;-64
2022/03/31 11:18:37;;;;;;;;;;;;;;;15.47;45.02;99290.91;4921772;28;122955;-64
2022/03/31 11:21:03;;;;;;;;;;;;;;;15.51;45.44;99288.34;4920780;28;126060;-63
2022/03/31 11:23:30;;;;;;;;;;;;;;;15.54;45.01;99284.19;4922279;28;99417;-62
2022/03/31 11:25:56;;;;;;;;;;;;;;;15.57;45.17;99280.81;4903878;28;118599;-64
2022/03/31 11:28:22;;;;;;;;;;;;;;;15.61;44.99;99282.53;4921807;28;122695;-64
2022/03/31 11:30:49;;;;;;;;;;;;;;;15.64;45.23;99281.88;4921143;28;107177;-63
2022/03/31 11:33:15;;;;;;;;;;;;;;;15.67;45.13;99280.44;4922002;28;98833;-64
2022/03/31 11:35:42;;;;;;;;;;;;;;;15.74;44.87;99283.44;4920123;28;128538;-62
2022/03/31 11:38:14;;;;;;;;;;;;;;;15.83;45.04;99281.44;4922283;28;97742;-62
2022/03/31 11:40:43;;;;;;;;;;;;;;;15.90;44.78;99270.06;4921517;28;98809;-64
2022/03/31 11:43:11;;;;;;;;;;;;;;;15.89;44.65;99276.63;4921854;28;99144;-64
2022/03/31 11:45:43;;;;;;;;;;;;;;;15.92;44.79;99273.25;4920880;28;98082;-64
2022/03/31 11:48:09;;;;;;;;;;;;;;;16.00;44.70;99269.66;4921961;28;97735;-63
2022/03/31 11:50:37;;;;;;;;;;;;;;;16.07;44.77;99263.69;4920856;28;126369;-64
2022/03/31 11:53:03;;;;;;;;;;;;;;;16.16;44.68;99256.28;4921332;28;112884;-64
2022/03/31 11:55:30;;;;;;;;;;;;;;;16.18;44.45;99262.16;4921401;28;98134;-64
2022/03/31 11:57:56;;;;;;;;;;;;;;;16.27;44.64;99256.63;4921974;28;97839;-62
2022/03/31 12:00:24;;;;;;;;;;;;;;;16.28;44.51;99260.97;4921425;28;98499;-62
2022/03/31 12:03:03;;;;;;;;;;;;;;;16.25;44.64;99256.97;4922503;28;98570;-62
2022/03/31 12:05:29;;;;;;;;;;;;;;;16.24;44.67;99260.03;4920635;28;98683;-63
2022/03/31 12:07:55;;;;;;;;;;;;;;;16.23;44.99;99256.53;4921421;28;97863;-64
2022/03/31 12:10:21;;;;;;;;;;;;;;;16.24;45.02;99251.88;4902900;28;106150;-64
2022/03/31 12:12:52;;;;;;;;;;;;;;;16.22;44.81;99252.19;4903613;28;98502;-63
2022/03/31 12:15:23;;;;;;;;;;;;;;;16.18;44.92;99254.00;4919171;28;98268;-64
2022/03/31 12:17:59;;;;;;;;;;;;;;;16.14;45.13;99253.88;4919009;28;98304;-64
2022/03/31 12:20:28;;;;;;;;;;;;;;;16.11;45.22;99254.56;4917721;28;98735;-63
2022/03/31 12:22:54;;;;;;;;;;;;;;;16.07;45.05;99250.91;4918057;28;98798;-65
2022/03/31 12:30:51;;;;;;;;;;;;;;;15.89;45.55;99258.41;5230997;22;98826;-64
2022/03/31 12:33:17;;;;;;;;;;;;;;;15.82;45.50;99254.63;4879955;28;104777;-64
2022/03/31 12:36:04;;;;;;;;;;;;;;;15.77;45.17;99252.91;4877301;28;98071;-64
2022/03/31 12:38:56;;;;;;;;;;;;;;;15.73;45.58;99249.25;4877245;28;97781;-64
2022/03/31 12:41:26;;;;;;;;;;;;;;;15.67;45.66;99245.13;4875251;28;100537;-62
2022/03/31 12:43:55;;;;;;;;;;;;;;;15.62;45.67;99256.97;4875984;28;98580;-64
2022/03/31 12:46:21;;;;;;;;;;;;;;;15.57;45.37;99251.72;4877205;28;98150;-62
2022/03/31 12:48:56;;;;;;;;;;;;;;;15.54;45.34;99251.59;4884560;28;97864;-64
2022/03/31 12:51:23;;;;;;;;;;;;;;;15.51;45.32;99249.53;4877622;28;98639;-63
2022/03/31 12:53:49;;;;;;;;;;;;;;;15.46;45.34;99254.03;4877244;28;99675;-63